sensor_id;sensor_type;location;lat;lon;timestamp;P1;durP1;ratioP1;P2;durP2;ratioP2
16760;SDS011;8498;52.516;13.790;2023-04-06T00:03:51;8.37;;;5.20;;
16760;SDS011;8498;52.516;13.790;2023-04-06T00:09:13;11.53;;;5.30;;
16760;SDS011;8498;52.516;13.790;2023-04-06T00:14:35;9.90;;;5.13;;
16760;SDS011;8498;52.516;13.790;2023-04-06T00:19:58;8.13;;;4.20;;
16760;SDS011;8498;52.516;13.790;2023-04-06T00:25:20;10.13;;;3.87;;
16760;SDS011;8498;52.516;13.790;2023-04-06T00:30:42;10.10;;;4.53;;
16760;SDS011;8498;52.516;13.790;2023-04-06T00:36:05;9.30;;;4.40;;
16760;SDS011;8498;52.516;13.790;2023-04-06T00:41:28;12.30;;;4.97;;
16760;SDS011;8498;52.516;13.790;2023-04-06T00:46:50;8.50;;;5.00;;
16760;SDS011;8498;52.516;13.790;2023-04-06T00:52:12;10.80;;;5.17;;
16760;SDS011;8498;52.516;13.790;2023-04-06T00:57:37;7.80;;;5.07;;
16760;SDS011;8498;52.516;13.790;2023-04-06T01:03:00;8.63;;;5.17;;
16760;SDS011;8498;52.516;13.790;2023-04-06T01:08:31;8.17;;;5.13;;
16760;SDS011;8498;52.516;13.790;2023-04-06T01:14:07;10.70;;;4.13;;
16760;SDS011;8498;52.516;13.790;2023-04-06T01:19:59;6.87;;;4.43;;
16760;SDS011;8498;52.516;13.790;2023-04-06T01:25:25;8.97;;;5.73;;
16760;SDS011;8498;52.516;13.790;2023-04-06T01:30:58;10.03;;;6.07;;
16760;SDS011;8498;52.516;13.790;2023-04-06T01:36:43;15.70;;;6.37;;
16760;SDS011;8498;52.516;13.790;2023-04-06T01:42:24;14.70;;;6.77;;
16760;SDS011;8498;52.516;13.790;2023-04-06T01:47:47;13.97;;;6.10;;
16760;SDS011;8498;52.516;13.790;2023-04-06T01:53:10;11.33;;;6.80;;
16760;SDS011;8498;52.516;13.790;2023-04-06T01:58:35;11.00;;;6.00;;
16760;SDS011;8498;52.516;13.790;2023-04-06T02:03:58;9.00;;;5.60;;
16760;SDS011;8498;52.516;13.790;2023-04-06T02:09:21;10.20;;;5.50;;
16760;SDS011;8498;52.516;13.790;2023-04-06T02:14:43;9.57;;;5.37;;
16760;SDS011;8498;52.516;13.790;2023-04-06T02:20:06;5.40;;;4.80;;
16760;SDS011;8498;52.516;13.790;2023-04-06T02:25:30;9.93;;;4.73;;
16760;SDS011;8498;52.516;13.790;2023-04-06T02:30:55;7.50;;;4.20;;
16760;SDS011;8498;52.516;13.790;2023-04-06T02:36:21;7.77;;;4.43;;
16760;SDS011;8498;52.516;13.790;2023-04-06T02:41:43;6.97;;;4.07;;
16760;SDS011;8498;52.516;13.790;2023-04-06T02:47:08;7.43;;;4.33;;
16760;SDS011;8498;52.516;13.790;2023-04-06T02:52:33;6.67;;;4.30;;
16760;SDS011;8498;52.516;13.790;2023-04-06T02:57:56;6.03;;;4.10;;
16760;SDS011;8498;52.516;13.790;2023-04-06T03:03:23;6.13;;;4.03;;
16760;SDS011;8498;52.516;13.790;2023-04-06T03:08:46;4.20;;;3.80;;
16760;SDS011;8498;52.516;13.790;2023-04-06T03:14:09;15.80;;;4.47;;
16760;SDS011;8498;52.516;13.790;2023-04-06T03:19:32;8.13;;;3.87;;
16760;SDS011;8498;52.516;13.790;2023-04-06T03:24:56;5.03;;;3.80;;
16760;SDS011;8498;52.516;13.790;2023-04-06T03:30:20;5.57;;;4.13;;
16760;SDS011;8498;52.516;13.790;2023-04-06T03:35:42;4.77;;;3.90;;
16760;SDS011;8498;52.516;13.790;2023-04-06T03:41:05;4.80;;;4.03;;
16760;SDS011;8498;52.516;13.790;2023-04-06T03:46:27;6.70;;;3.83;;
16760;SDS011;8498;52.516;13.790;2023-04-06T03:51:52;5.53;;;3.63;;
16760;SDS011;8498;52.516;13.790;2023-04-06T03:57:15;3.80;;;3.23;;
16760;SDS011;8498;52.516;13.790;2023-04-06T04:02:37;5.30;;;3.83;;
16760;SDS011;8498;52.516;13.790;2023-04-06T04:08:00;5.87;;;3.43;;
16760;SDS011;8498;52.516;13.790;2023-04-06T04:13:22;6.83;;;4.50;;
16760;SDS011;8498;52.516;13.790;2023-04-06T04:18:46;5.87;;;3.90;;
16760;SDS011;8498;52.516;13.790;2023-04-06T04:24:10;4.60;;;3.47;;
16760;SDS011;8498;52.516;13.790;2023-04-06T04:29:34;4.13;;;3.23;;
16760;SDS011;8498;52.516;13.790;2023-04-06T04:35:00;5.40;;;3.60;;
16760;SDS011;8498;52.516;13.790;2023-04-06T04:40:31;6.90;;;3.93;;
16760;SDS011;8498;52.516;13.790;2023-04-06T04:46:03;9.30;;;4.60;;
16760;SDS011;8498;52.516;13.790;2023-04-06T04:51:32;6.40;;;4.37;;
16760;SDS011;8498;52.516;13.790;2023-04-06T04:57:07;7.37;;;4.27;;
16760;SDS011;8498;52.516;13.790;2023-04-06T05:02:35;5.20;;;3.87;;
16760;SDS011;8498;52.516;13.790;2023-04-06T05:08:07;8.60;;;3.50;;
16760;SDS011;8498;52.516;13.790;2023-04-06T05:13:36;8.10;;;4.17;;
16760;SDS011;8498;52.516;13.790;2023-04-06T05:19:05;5.13;;;4.20;;
16760;SDS011;8498;52.516;13.790;2023-04-06T05:24:34;7.30;;;4.13;;
16760;SDS011;8498;52.516;13.790;2023-04-06T05:29:59;8.53;;;4.07;;
16760;SDS011;8498;52.516;13.790;2023-04-06T05:35:24;7.57;;;3.93;;
16760;SDS011;8498;52.516;13.790;2023-04-06T05:40:52;7.07;;;4.07;;
16760;SDS011;8498;52.516;13.790;2023-04-06T05:46:18;6.13;;;4.53;;
16760;SDS011;8498;52.516;13.790;2023-04-06T05:51:42;5.93;;;3.93;;
16760;SDS011;8498;52.516;13.790;2023-04-06T05:57:05;6.67;;;4.50;;
16760;SDS011;8498;52.516;13.790;2023-04-06T06:02:29;5.83;;;4.00;;
16760;SDS011;8498;52.516;13.790;2023-04-06T06:07:52;8.40;;;4.87;;
16760;SDS011;8498;52.516;13.790;2023-04-06T06:13:15;8.37;;;5.00;;
16760;SDS011;8498;52.516;13.790;2023-04-06T06:18:38;8.27;;;4.80;;
16760;SDS011;8498;52.516;13.790;2023-04-06T06:24:02;10.93;;;4.97;;
16760;SDS011;8498;52.516;13.790;2023-04-06T06:29:25;7.43;;;4.73;;
16760;SDS011;8498;52.516;13.790;2023-04-06T06:34:47;7.00;;;4.93;;
16760;SDS011;8498;52.516;13.790;2023-04-06T06:40:11;8.03;;;5.13;;
16760;SDS011;8498;52.516;13.790;2023-04-06T06:45:37;11.07;;;5.30;;
16760;SDS011;8498;52.516;13.790;2023-04-06T06:50:59;6.87;;;4.37;;
16760;SDS011;8498;52.516;13.790;2023-04-06T06:56:22;13.63;;;4.93;;
16760;SDS011;8498;52.516;13.790;2023-04-06T07:01:46;7.07;;;4.53;;
16760;SDS011;8498;52.516;13.790;2023-04-06T07:07:08;6.07;;;4.90;;
16760;SDS011;8498;52.516;13.790;2023-04-06T07:12:31;8.87;;;5.20;;
16760;SDS011;8498;52.516;13.790;2023-04-06T07:17:56;9.27;;;4.87;;
16760;SDS011;8498;52.516;13.790;2023-04-06T07:23:19;7.83;;;4.30;;
16760;SDS011;8498;52.516;13.790;2023-04-06T07:28:42;5.93;;;3.90;;
16760;SDS011;8498;52.516;13.790;2023-04-06T07:34:07;9.80;;;4.33;;
16760;SDS011;8498;52.516;13.790;2023-04-06T07:39:31;6.53;;;3.90;;
16760;SDS011;8498;52.516;13.790;2023-04-06T07:44:54;8.63;;;3.93;;
16760;SDS011;8498;52.516;13.790;2023-04-06T07:50:17;8.40;;;3.90;;
16760;SDS011;8498;52.516;13.790;2023-04-06T07:55:40;7.17;;;3.90;;
16760;SDS011;8498;52.516;13.790;2023-04-06T08:01:03;6.13;;;3.27;;
16760;SDS011;8498;52.516;13.790;2023-04-06T08:06:25;5.37;;;3.83;;
16760;SDS011;8498;52.516;13.790;2023-04-06T08:11:48;4.43;;;3.60;;
16760;SDS011;8498;52.516;13.790;2023-04-06T08:17:13;10.00;;;3.70;;
16760;SDS011;8498;52.516;13.790;2023-04-06T08:22:41;7.33;;;3.77;;
16760;SDS011;8498;52.516;13.790;2023-04-06T08:28:03;8.20;;;2.80;;
16760;SDS011;8498;52.516;13.790;2023-04-06T08:33:26;6.90;;;2.70;;
16760;SDS011;8498;52.516;13.790;2023-04-06T08:38:48;3.93;;;2.57;;
16760;SDS011;8498;52.516;13.790;2023-04-06T08:44:11;5.00;;;2.20;;
16760;SDS011;8498;52.516;13.790;2023-04-06T08:49:34;4.17;;;2.30;;
16760;SDS011;8498;52.516;13.790;2023-04-06T08:55:00;4.57;;;2.63;;
16760;SDS011;8498;52.516;13.790;2023-04-06T09:00:23;3.97;;;3.23;;
16760;SDS011;8498;52.516;13.790;2023-04-06T09:05:47;8.07;;;2.90;;
16760;SDS011;8498;52.516;13.790;2023-04-06T09:11:10;3.30;;;2.47;;
16760;SDS011;8498;52.516;13.790;2023-04-06T09:16:38;2.97;;;2.40;;
16760;SDS011;8498;52.516;13.790;2023-04-06T09:22:03;2.50;;;2.30;;
16760;SDS011;8498;52.516;13.790;2023-04-06T09:27:30;4.57;;;2.60;;
16760;SDS011;8498;52.516;13.790;2023-04-06T09:32:55;3.07;;;2.43;;
16760;SDS011;8498;52.516;13.790;2023-04-06T09:38:19;6.23;;;2.40;;
16760;SDS011;8498;52.516;13.790;2023-04-06T09:43:41;3.90;;;2.10;;
16760;SDS011;8498;52.516;13.790;2023-04-06T09:49:06;3.43;;;2.20;;
16760;SDS011;8498;52.516;13.790;2023-04-06T09:54:32;2.60;;;2.17;;
16760;SDS011;8498;52.516;13.790;2023-04-06T10:11:09;3.77;;;1.90;;
16760;SDS011;8498;52.516;13.790;2023-04-06T10:16:32;2.83;;;2.20;;
16760;SDS011;8498;52.516;13.790;2023-04-06T10:21:56;2.90;;;2.10;;
16760;SDS011;8498;52.516;13.790;2023-04-06T10:27:29;4.40;;;2.20;;
16760;SDS011;8498;52.516;13.790;2023-04-06T10:32:52;4.10;;;2.50;;
16760;SDS011;8498;52.516;13.790;2023-04-06T10:38:15;5.30;;;2.23;;
16760;SDS011;8498;52.516;13.790;2023-04-06T10:43:42;2.40;;;2.03;;
16760;SDS011;8498;52.516;13.790;2023-04-06T10:49:10;4.23;;;2.37;;
16760;SDS011;8498;52.516;13.790;2023-04-06T10:54:34;3.10;;;2.20;;
16760;SDS011;8498;52.516;13.790;2023-04-06T11:00:04;2.53;;;2.33;;
16760;SDS011;8498;52.516;13.790;2023-04-06T11:05:27;4.47;;;2.10;;
16760;SDS011;8498;52.516;13.790;2023-04-06T11:10:50;3.23;;;2.40;;
16760;SDS011;8498;52.516;13.790;2023-04-06T11:16:19;3.70;;;2.27;;
16760;SDS011;8498;52.516;13.790;2023-04-06T11:21:44;3.50;;;2.20;;
16760;SDS011;8498;52.516;13.790;2023-04-06T11:27:10;5.40;;;2.33;;
16760;SDS011;8498;52.516;13.790;2023-04-06T11:32:42;4.63;;;2.53;;
16760;SDS011;8498;52.516;13.790;2023-04-06T11:38:06;3.93;;;2.67;;
16760;SDS011;8498;52.516;13.790;2023-04-06T11:43:31;4.27;;;2.30;;
16760;SDS011;8498;52.516;13.790;2023-04-06T11:48:57;2.13;;;1.80;;
16760;SDS011;8498;52.516;13.790;2023-04-06T11:59:56;3.03;;;2.73;;
16760;SDS011;8498;52.516;13.790;2023-04-06T12:05:19;2.37;;;1.80;;
16760;SDS011;8498;52.516;13.790;2023-04-06T12:10:41;3.77;;;2.00;;
16760;SDS011;8498;52.516;13.790;2023-04-06T12:16:04;3.00;;;1.97;;
16760;SDS011;8498;52.516;13.790;2023-04-06T12:21:27;3.33;;;2.00;;
16760;SDS011;8498;52.516;13.790;2023-04-06T12:26:50;2.43;;;1.80;;
16760;SDS011;8498;52.516;13.790;2023-04-06T12:32:24;3.40;;;1.80;;
16760;SDS011;8498;52.516;13.790;2023-04-06T12:37:46;2.40;;;2.20;;
16760;SDS011;8498;52.516;13.790;2023-04-06T12:43:09;3.07;;;1.90;;
16760;SDS011;8498;52.516;13.790;2023-04-06T12:48:31;5.23;;;2.17;;
16760;SDS011;8498;52.516;13.790;2023-04-06T12:53:54;3.50;;;2.40;;
16760;SDS011;8498;52.516;13.790;2023-04-06T12:59:17;3.03;;;1.90;;
16760;SDS011;8498;52.516;13.790;2023-04-06T13:04:39;2.23;;;1.80;;
16760;SDS011;8498;52.516;13.790;2023-04-06T13:10:02;3.30;;;2.23;;
16760;SDS011;8498;52.516;13.790;2023-04-06T13:15:24;4.13;;;2.13;;
16760;SDS011;8498;52.516;13.790;2023-04-06T13:20:47;1.90;;;1.80;;
16760;SDS011;8498;52.516;13.790;2023-04-06T13:26:10;2.10;;;1.90;;
16760;SDS011;8498;52.516;13.790;2023-04-06T13:31:33;4.33;;;2.07;;
16760;SDS011;8498;52.516;13.790;2023-04-06T13:36:55;5.60;;;2.10;;
16760;SDS011;8498;52.516;13.790;2023-04-06T13:42:18;2.00;;;1.90;;
16760;SDS011;8498;52.516;13.790;2023-04-06T13:47:40;2.43;;;1.90;;
16760;SDS011;8498;52.516;13.790;2023-04-06T13:53:03;2.93;;;2.40;;
16760;SDS011;8498;52.516;13.790;2023-04-06T13:58:25;2.20;;;1.80;;
16760;SDS011;8498;52.516;13.790;2023-04-06T14:03:48;2.03;;;1.93;;
16760;SDS011;8498;52.516;13.790;2023-04-06T14:09:11;2.13;;;1.70;;
16760;SDS011;8498;52.516;13.790;2023-04-06T14:14:33;3.13;;;1.87;;
16760;SDS011;8498;52.516;13.790;2023-04-06T14:19:55;2.80;;;2.30;;
16760;SDS011;8498;52.516;13.790;2023-04-06T14:25:18;2.03;;;1.93;;
16760;SDS011;8498;52.516;13.790;2023-04-06T14:30:40;3.43;;;1.90;;
16760;SDS011;8498;52.516;13.790;2023-04-06T14:36:03;2.70;;;2.07;;
16760;SDS011;8498;52.516;13.790;2023-04-06T14:41:26;3.23;;;2.03;;
16760;SDS011;8498;52.516;13.790;2023-04-06T14:46:49;3.53;;;2.07;;
16760;SDS011;8498;52.516;13.790;2023-04-06T14:52:12;5.13;;;2.30;;
16760;SDS011;8498;52.516;13.790;2023-04-06T14:57:34;5.93;;;1.97;;
16760;SDS011;8498;52.516;13.790;2023-04-06T15:02:57;2.00;;;1.90;;
16760;SDS011;8498;52.516;13.790;2023-04-06T15:08:19;3.67;;;2.20;;
16760;SDS011;8498;52.516;13.790;2023-04-06T15:13:43;4.53;;;2.40;;
16760;SDS011;8498;52.516;13.790;2023-04-06T15:19:05;3.20;;;2.53;;
16760;SDS011;8498;52.516;13.790;2023-04-06T15:24:28;2.73;;;1.90;;
16760;SDS011;8498;52.516;13.790;2023-04-06T15:29:50;2.70;;;2.10;;
16760;SDS011;8498;52.516;13.790;2023-04-06T15:35:13;5.60;;;2.40;;
16760;SDS011;8498;52.516;13.790;2023-04-06T15:40:42;3.13;;;2.10;;
16760;SDS011;8498;52.516;13.790;2023-04-06T15:46:09;3.30;;;2.33;;
16760;SDS011;8498;52.516;13.790;2023-04-06T15:51:33;3.80;;;2.23;;
16760;SDS011;8498;52.516;13.790;2023-04-06T15:56:57;2.30;;;2.10;;
16760;SDS011;8498;52.516;13.790;2023-04-06T16:02:19;2.50;;;2.07;;
16760;SDS011;8498;52.516;13.790;2023-04-06T16:07:44;5.60;;;2.50;;
16760;SDS011;8498;52.516;13.790;2023-04-06T16:13:07;3.37;;;2.43;;
16760;SDS011;8498;52.516;13.790;2023-04-06T16:18:30;3.37;;;2.80;;
16760;SDS011;8498;52.516;13.790;2023-04-06T16:23:55;2.43;;;2.13;;
16760;SDS011;8498;52.516;13.790;2023-04-06T16:29:20;5.50;;;2.23;;
16760;SDS011;8498;52.516;13.790;2023-04-06T16:34:43;2.73;;;2.03;;
16760;SDS011;8498;52.516;13.790;2023-04-06T16:40:07;2.43;;;2.23;;
16760;SDS011;8498;52.516;13.790;2023-04-06T16:45:30;4.03;;;2.70;;
16760;SDS011;8498;52.516;13.790;2023-04-06T16:50:53;5.03;;;2.90;;
16760;SDS011;8498;52.516;13.790;2023-04-06T16:56:16;6.17;;;3.57;;
16760;SDS011;8498;52.516;13.790;2023-04-06T17:01:38;4.40;;;3.03;;
16760;SDS011;8498;52.516;13.790;2023-04-06T17:07:00;6.73;;;3.00;;
16760;SDS011;8498;52.516;13.790;2023-04-06T17:12:23;4.87;;;3.17;;
16760;SDS011;8498;52.516;13.790;2023-04-06T17:17:45;5.67;;;3.77;;
16760;SDS011;8498;52.516;13.790;2023-04-06T17:23:08;4.67;;;3.20;;
16760;SDS011;8498;52.516;13.790;2023-04-06T17:28:32;3.77;;;3.03;;
16760;SDS011;8498;52.516;13.790;2023-04-06T17:33:55;7.10;;;3.77;;
16760;SDS011;8498;52.516;13.790;2023-04-06T17:39:17;5.07;;;3.40;;
16760;SDS011;8498;52.516;13.790;2023-04-06T17:44:39;10.40;;;3.20;;
16760;SDS011;8498;52.516;13.790;2023-04-06T17:50:02;7.17;;;3.20;;
16760;SDS011;8498;52.516;13.790;2023-04-06T17:55:24;10.83;;;4.93;;
16760;SDS011;8498;52.516;13.790;2023-04-06T18:00:46;4.13;;;3.20;;
16760;SDS011;8498;52.516;13.790;2023-04-06T18:06:12;6.07;;;3.40;;
16760;SDS011;8498;52.516;13.790;2023-04-06T18:11:36;7.50;;;3.63;;
16760;SDS011;8498;52.516;13.790;2023-04-06T18:16:59;7.03;;;4.40;;
16760;SDS011;8498;52.516;13.790;2023-04-06T18:22:21;8.00;;;4.03;;
16760;SDS011;8498;52.516;13.790;2023-04-06T18:27:44;5.60;;;3.40;;
16760;SDS011;8498;52.516;13.790;2023-04-06T18:33:07;5.87;;;3.93;;
16760;SDS011;8498;52.516;13.790;2023-04-06T18:38:29;5.87;;;4.00;;
16760;SDS011;8498;52.516;13.790;2023-04-06T18:43:51;7.47;;;4.07;;
16760;SDS011;8498;52.516;13.790;2023-04-06T18:49:14;8.03;;;4.13;;
16760;SDS011;8498;52.516;13.790;2023-04-06T18:54:36;6.97;;;4.07;;
16760;SDS011;8498;52.516;13.790;2023-04-06T18:59:59;6.27;;;4.33;;
16760;SDS011;8498;52.516;13.790;2023-04-06T19:05:22;5.37;;;3.97;;
16760;SDS011;8498;52.516;13.790;2023-04-06T19:10:45;6.93;;;4.47;;
16760;SDS011;8498;52.516;13.790;2023-04-06T19:16:09;5.73;;;4.20;;
16760;SDS011;8498;52.516;13.790;2023-04-06T19:21:32;6.70;;;4.30;;
16760;SDS011;8498;52.516;13.790;2023-04-06T19:26:54;6.67;;;4.30;;
16760;SDS011;8498;52.516;13.790;2023-04-06T19:32:17;6.20;;;4.67;;
16760;SDS011;8498;52.516;13.790;2023-04-06T19:37:41;8.07;;;4.37;;
16760;SDS011;8498;52.516;13.790;2023-04-06T19:43:04;7.67;;;4.43;;
16760;SDS011;8498;52.516;13.790;2023-04-06T19:48:26;7.37;;;4.53;;
16760;SDS011;8498;52.516;13.790;2023-04-06T19:53:49;6.47;;;4.60;;
16760;SDS011;8498;52.516;13.790;2023-04-06T19:59:11;8.20;;;4.63;;
16760;SDS011;8498;52.516;13.790;2023-04-06T20:04:34;6.47;;;4.73;;
16760;SDS011;8498;52.516;13.790;2023-04-06T20:09:56;6.60;;;4.53;;
16760;SDS011;8498;52.516;13.790;2023-04-06T20:15:18;4.80;;;4.30;;
16760;SDS011;8498;52.516;13.790;2023-04-06T20:20:41;9.63;;;4.80;;
16760;SDS011;8498;52.516;13.790;2023-04-06T20:26:07;5.67;;;4.50;;
16760;SDS011;8498;52.516;13.790;2023-04-06T20:31:31;8.70;;;4.27;;
16760;SDS011;8498;52.516;13.790;2023-04-06T20:36:54;9.83;;;4.83;;
16760;SDS011;8498;52.516;13.790;2023-04-06T20:42:17;8.80;;;5.63;;
16760;SDS011;8498;52.516;13.790;2023-04-06T20:47:39;12.90;;;5.97;;
16760;SDS011;8498;52.516;13.790;2023-04-06T20:53:02;13.33;;;5.50;;
16760;SDS011;8498;52.516;13.790;2023-04-06T20:58:25;10.33;;;5.60;;
16760;SDS011;8498;52.516;13.790;2023-04-06T21:03:47;15.83;;;5.70;;
16760;SDS011;8498;52.516;13.790;2023-04-06T21:09:10;12.57;;;6.13;;
16760;SDS011;8498;52.516;13.790;2023-04-06T21:14:33;13.60;;;6.70;;
16760;SDS011;8498;52.516;13.790;2023-04-06T21:19:55;8.87;;;5.77;;
16760;SDS011;8498;52.516;13.790;2023-04-06T21:25:18;9.17;;;5.53;;
16760;SDS011;8498;52.516;13.790;2023-04-06T21:30:40;12.73;;;5.30;;
16760;SDS011;8498;52.516;13.790;2023-04-06T21:36:07;10.87;;;5.13;;
16760;SDS011;8498;52.516;13.790;2023-04-06T21:41:29;9.40;;;5.10;;
16760;SDS011;8498;52.516;13.790;2023-04-06T21:46:53;8.10;;;4.77;;
16760;SDS011;8498;52.516;13.790;2023-04-06T21:52:15;8.97;;;4.63;;
16760;SDS011;8498;52.516;13.790;2023-04-06T21:57:37;9.00;;;5.70;;
16760;SDS011;8498;52.516;13.790;2023-04-06T22:02:59;11.00;;;5.57;;
16760;SDS011;8498;52.516;13.790;2023-04-06T22:08:22;9.77;;;5.93;;
16760;SDS011;8498;52.516;13.790;2023-04-06T22:13:55;10.47;;;6.07;;
16760;SDS011;8498;52.516;13.790;2023-04-06T22:19:17;14.67;;;6.53;;
16760;SDS011;8498;52.516;13.790;2023-04-06T22:24:40;13.20;;;6.70;;
16760;SDS011;8498;52.516;13.790;2023-04-06T22:30:03;16.47;;;6.73;;
16760;SDS011;8498;52.516;13.790;2023-04-06T22:35:26;14.03;;;7.53;;
16760;SDS011;8498;52.516;13.790;2023-04-06T22:40:48;12.37;;;7.67;;
16760;SDS011;8498;52.516;13.790;2023-04-06T22:46:10;15.47;;;7.67;;
16760;SDS011;8498;52.516;13.790;2023-04-06T22:51:32;18.53;;;7.57;;
16760;SDS011;8498;52.516;13.790;2023-04-06T22:56:55;13.77;;;8.63;;
16760;SDS011;8498;52.516;13.790;2023-04-06T23:02:17;15.53;;;8.97;;
16760;SDS011;8498;52.516;13.790;2023-04-06T23:07:40;14.77;;;7.70;;
16760;SDS011;8498;52.516;13.790;2023-04-06T23:13:02;12.30;;;7.43;;
16760;SDS011;8498;52.516;13.790;2023-04-06T23:18:24;11.97;;;7.17;;
16760;SDS011;8498;52.516;13.790;2023-04-06T23:23:47;16.77;;;7.83;;
16760;SDS011;8498;52.516;13.790;2023-04-06T23:29:09;15.53;;;7.83;;
16760;SDS011;8498;52.516;13.790;2023-04-06T23:34:32;19.10;;;8.37;;
16760;SDS011;8498;52.516;13.790;2023-04-06T23:39:54;16.20;;;7.80;;
16760;SDS011;8498;52.516;13.790;2023-04-06T23:45:17;16.67;;;8.03;;
16760;SDS011;8498;52.516;13.790;2023-04-06T23:50:39;15.97;;;8.40;;
16760;SDS011;8498;52.516;13.790;2023-04-06T23:56:02;14.33;;;8.10;;
